Current | Forecast
Updated: 7:00 PM CEST on April 23, 2018
Observed at Salamanca, Spain
Temperature 23°C
Humidity 47%
Dew Point 11°C
Wind East at 17 km/h
Pressure 1017 hPa (Steady)
Conditions Clear
Visibility -
UV N/A
Clouds
Yesterday's Maximum 20°C
Yesterday's Minimum 12°C approx.
Yesterday's Heating Degree Days 4 approx.
Sunrise7:34 AM CEST
Sunset9:10 PM CEST
Moon Rise2:11 PM CEST
Moon Set3:53 AM CEST
Moon PhaseMoon Phase
First Quarter
Raw METARMETAR LESA 231700Z 08009KT 050V120 CAVOK 23/11 Q1017


Monday
. High: 66° F.
Tuesday
. High: 73° F.
Wednesday
. High: 60° F.
Thursday
. High: 69° F.
Friday
. High: 75° F.
Saturday
. High: 75° F.
Sunday
. High: 77° F.
Monday
. High: 86° F.

Units: English | Metric

Find the Weather for any City, State or Zipcode, or Country:

U.S. State List | Severe Weather | Tropical Storms | Ski Conditions
United States | Canada | Central America | South America | Asia | Europe | Australia | Africa | Islands

Weather Underground

© Copyright 2018
The Weather Company, LLC